sensor_id;sensor_type;location;lat;lon;timestamp;pressure;altitude;pressure_sealevel;temperature;humidity
23261;BME280;11799;47.740;-3.390;2024-01-10T00:01:33;102179.97;;;0.33;100.00
23261;BME280;11799;47.740;-3.390;2024-01-10T00:03:59;102181.78;;;0.27;100.00
23261;BME280;11799;47.740;-3.390;2024-01-10T00:06:24;102186.19;;;0.23;100.00
23261;BME280;11799;47.740;-3.390;2024-01-10T00:08:50;102177.59;;;0.17;100.00
23261;BME280;11799;47.740;-3.390;2024-01-10T00:11:15;102180.09;;;0.24;100.00
23261;BME280;11799;47.740;-3.390;2024-01-10T00:13:41;102174.97;;;0.20;100.00
23261;BME280;11799;47.740;-3.390;2024-01-10T00:16:07;102182.69;;;0.24;100.00
23261;BME280;11799;47.740;-3.390;2024-01-10T00:18:33;102167.94;;;0.26;100.00
23261;BME280;11799;47.740;-3.390;2024-01-10T00:20:59;102166.25;;;0.24;100.00
23261;BME280;11799;47.740;-3.390;2024-01-10T00:23:24;102169.72;;;0.23;100.00
23261;BME280;11799;47.740;-3.390;2024-01-10T00:25:50;102174.03;;;0.24;100.00
23261;BME280;11799;47.740;-3.390;2024-01-10T00:28:16;102166.16;;;0.30;100.00
23261;BME280;11799;47.740;-3.390;2024-01-10T00:30:46;102167.03;;;0.29;100.00
23261;BME280;11799;47.740;-3.390;2024-01-10T00:33:15;102160.97;;;0.30;100.00
23261;BME280;11799;47.740;-3.390;2024-01-10T00:35:41;102163.53;;;0.31;100.00
23261;BME280;11799;47.740;-3.390;2024-01-10T00:38:06;102154.13;;;0.23;100.00
23261;BME280;11799;47.740;-3.390;2024-01-10T00:40:32;102155.88;;;0.22;100.00
23261;BME280;11799;47.740;-3.390;2024-01-10T00:42:57;102154.09;;;0.26;100.00
23261;BME280;11799;47.740;-3.390;2024-01-10T00:45:24;102148.16;;;0.18;100.00
23261;BME280;11799;47.740;-3.390;2024-01-10T00:47:49;102148.09;;;0.22;100.00
23261;BME280;11799;47.740;-3.390;2024-01-10T00:50:15;102152.41;;;0.22;100.00
23261;BME280;11799;47.740;-3.390;2024-01-10T00:52:45;102140.44;;;0.12;100.00
23261;BME280;11799;47.740;-3.390;2024-01-10T00:55:11;102149.97;;;0.10;100.00
23261;BME280;11799;47.740;-3.390;2024-01-10T00:57:37;102152.50;;;0.16;100.00
23261;BME280;11799;47.740;-3.390;2024-01-10T01:00:12;102153.28;;;0.22;100.00
23261;BME280;11799;47.740;-3.390;2024-01-10T01:02:38;102148.94;;;0.23;100.00
23261;BME280;11799;47.740;-3.390;2024-01-10T01:05:05;102148.09;;;0.22;100.00
23261;BME280;11799;47.740;-3.390;2024-01-10T01:07:32;102148.94;;;0.23;100.00
23261;BME280;11799;47.740;-3.390;2024-01-10T01:09:57;102159.34;;;0.23;100.00
23261;BME280;11799;47.740;-3.390;2024-01-10T01:12:23;102163.75;;;0.16;100.00
23261;BME280;11799;47.740;-3.390;2024-01-10T01:14:48;102162.00;;;0.18;100.00
23261;BME280;11799;47.740;-3.390;2024-01-10T01:17:14;102158.66;;;0.09;100.00
23261;BME280;11799;47.740;-3.390;2024-01-10T01:19:39;102156.00;;;0.13;100.00
23261;BME280;11799;47.740;-3.390;2024-01-10T01:22:05;102161.19;;;0.13;100.00
23261;BME280;11799;47.740;-3.390;2024-01-10T01:24:31;102159.34;;;0.21;100.00
23261;BME280;11799;47.740;-3.390;2024-01-10T01:26:56;102157.69;;;0.16;100.00
23261;BME280;11799;47.740;-3.390;2024-01-10T01:29:22;102156.75;;;0.21;100.00
23261;BME280;11799;47.740;-3.390;2024-01-10T01:31:47;102150.72;;;0.19;100.00
23261;BME280;11799;47.740;-3.390;2024-01-10T01:34:13;102149.03;;;0.17;100.00
23261;BME280;11799;47.740;-3.390;2024-01-10T01:36:39;102161.06;;;0.24;100.00
23261;BME280;11799;47.740;-3.390;2024-01-10T01:39:05;102154.25;;;0.14;100.00
23261;BME280;11799;47.740;-3.390;2024-01-10T01:41:31;102160.31;;;0.14;100.00
23261;BME280;11799;47.740;-3.390;2024-01-10T01:43:56;102155.03;;;0.22;100.00
23261;BME280;11799;47.740;-3.390;2024-01-10T01:46:22;102148.09;;;0.22;100.00
23261;BME280;11799;47.740;-3.390;2024-01-10T01:48:49;102154.94;;;0.28;100.00
23261;BME280;11799;47.740;-3.390;2024-01-10T01:51:16;102145.53;;;0.19;100.00
23261;BME280;11799;47.740;-3.390;2024-01-10T01:53:44;102154.19;;;0.20;100.00
23261;BME280;11799;47.740;-3.390;2024-01-10T01:56:10;102142.84;;;0.25;100.00
23261;BME280;11799;47.740;-3.390;2024-01-10T01:58:38;102148.03;;;0.25;100.00
23261;BME280;11799;47.740;-3.390;2024-01-10T02:01:05;102150.81;;;0.12;100.00
23261;BME280;11799;47.740;-3.390;2024-01-10T02:03:31;102152.56;;;0.11;100.00
23261;BME280;11799;47.740;-3.390;2024-01-10T02:05:59;102157.69;;;0.16;100.00
23261;BME280;11799;47.740;-3.390;2024-01-10T02:08:25;102161.19;;;0.13;100.00
23261;BME280;11799;47.740;-3.390;2024-01-10T02:10:50;102161.28;;;0.06;100.00
23261;BME280;11799;47.740;-3.390;2024-01-10T02:13:16;102165.69;;;0.00;100.00
23261;BME280;11799;47.740;-3.390;2024-01-10T02:15:42;102170.09;;;-0.03;100.00
23261;BME280;11799;47.740;-3.390;2024-01-10T02:18:08;102170.75;;;0.10;100.00
23261;BME280;11799;47.740;-3.390;2024-01-10T02:20:38;102170.81;;;0.05;100.00
23261;BME280;11799;47.740;-3.390;2024-01-10T02:23:04;102166.47;;;0.07;100.00
23261;BME280;11799;47.740;-3.390;2024-01-10T02:25:29;102169.88;;;0.11;100.00
23261;BME280;11799;47.740;-3.390;2024-01-10T02:27:55;102183.75;;;0.10;100.00
23261;BME280;11799;47.740;-3.390;2024-01-10T02:30:20;102179.41;;;0.10;100.00
23261;BME280;11799;47.740;-3.390;2024-01-10T02:32:46;102176.84;;;0.07;100.00
23261;BME280;11799;47.740;-3.390;2024-01-10T02:35:11;102183.69;;;0.16;100.00
23261;BME280;11799;47.740;-3.390;2024-01-10T02:37:37;102175.91;;;0.14;100.00
23261;BME280;11799;47.740;-3.390;2024-01-10T02:40:02;102182.78;;;0.17;100.00
23261;BME280;11799;47.740;-3.390;2024-01-10T02:42:28;102173.28;;;0.16;100.00
23261;BME280;11799;47.740;-3.390;2024-01-10T02:44:55;102177.63;;;0.14;100.00
23261;BME280;11799;47.740;-3.390;2024-01-10T02:47:21;102175.06;;;0.12;100.00
23261;BME280;11799;47.740;-3.390;2024-01-10T02:49:47;102186.31;;;0.13;100.00
23261;BME280;11799;47.740;-3.390;2024-01-10T02:52:12;102178.59;;;0.07;100.00
23261;BME280;11799;47.740;-3.390;2024-01-10T02:54:38;102179.50;;;0.03;100.00
23261;BME280;11799;47.740;-3.390;2024-01-10T02:57:03;102168.28;;;0.00;100.00
23261;BME280;11799;47.740;-3.390;2024-01-10T02:59:29;102171.66;;;0.07;100.00
23261;BME280;11799;47.740;-3.390;2024-01-10T03:01:54;102170.16;;;-0.08;100.00
23261;BME280;11799;47.740;-3.390;2024-01-10T03:04:20;102169.97;;;0.03;100.00
23261;BME280;11799;47.740;-3.390;2024-01-10T03:06:45;102176.84;;;0.09;100.00
23261;BME280;11799;47.740;-3.390;2024-01-10T03:09:11;102173.41;;;0.07;100.00
23261;BME280;11799;47.740;-3.390;2024-01-10T03:11:36;102171.81;;;-0.04;100.00
23261;BME280;11799;47.740;-3.390;2024-01-10T03:14:09;102173.41;;;0.07;100.00
23261;BME280;11799;47.740;-3.390;2024-01-10T03:16:36;102172.53;;;0.06;100.00
23261;BME280;11799;47.740;-3.390;2024-01-10T03:19:02;102165.63;;;0.05;100.00
23261;BME280;11799;47.740;-3.390;2024-01-10T03:21:27;102169.22;;;-0.02;100.00
23261;BME280;11799;47.740;-3.390;2024-01-10T03:23:55;102168.25;;;0.04;100.00
23261;BME280;11799;47.740;-3.390;2024-01-10T03:26:22;102166.47;;;0.07;100.00
23261;BME280;11799;47.740;-3.390;2024-01-10T03:28:47;102169.94;;;0.08;100.00
23261;BME280;11799;47.740;-3.390;2024-01-10T03:31:13;102172.50;;;0.09;100.00
23261;BME280;11799;47.740;-3.390;2024-01-10T03:33:39;102167.41;;;0.02;100.00
23261;BME280;11799;47.740;-3.390;2024-01-10T03:36:06;102162.28;;;-0.02;100.00
23261;BME280;11799;47.740;-3.390;2024-01-10T03:38:32;102162.25;;;0.00;100.00
23261;BME280;11799;47.740;-3.390;2024-01-10T03:40:57;102164.91;;;-0.03;100.00
23261;BME280;11799;47.740;-3.390;2024-01-10T03:43:23;102159.69;;;-0.03;100.00
23261;BME280;11799;47.740;-3.390;2024-01-10T03:45:49;102160.75;;;-0.18;100.00
23261;BME280;11799;47.740;-3.390;2024-01-10T03:48:14;102162.34;;;-0.06;100.00
23261;BME280;11799;47.740;-3.390;2024-01-10T03:50:40;102153.59;;;-0.01;100.00
23261;BME280;11799;47.740;-3.390;2024-01-10T03:53:05;102147.56;;;-0.03;100.00
23261;BME280;11799;47.740;-3.390;2024-01-10T03:55:31;102157.97;;;-0.03;100.00
23261;BME280;11799;47.740;-3.390;2024-01-10T03:57:57;102150.28;;;-0.12;100.00
23261;BME280;11799;47.740;-3.390;2024-01-10T04:00:22;102152.91;;;-0.13;100.00
23261;BME280;11799;47.740;-3.390;2024-01-10T04:02:48;102150.25;;;-0.10;100.00
23261;BME280;11799;47.740;-3.390;2024-01-10T04:05:13;102149.34;;;-0.06;100.00
23261;BME280;11799;47.740;-3.390;2024-01-10T04:07:40;102155.41;;;-0.06;100.00
23261;BME280;11799;47.740;-3.390;2024-01-10T04:10:12;102154.50;;;-0.03;100.00
23261;BME280;11799;47.740;-3.390;2024-01-10T04:12:45;102156.41;;;-0.16;100.00
23261;BME280;11799;47.740;-3.390;2024-01-10T04:15:12;102164.16;;;-0.14;100.00
23261;BME280;11799;47.740;-3.390;2024-01-10T04:17:37;102164.19;;;-0.17;100.00
23261;BME280;11799;47.740;-3.390;2024-01-10T04:20:04;102160.72;;;-0.15;100.00
23261;BME280;11799;47.740;-3.390;2024-01-10T04:22:30;102158.97;;;-0.14;100.00
23261;BME280;11799;47.740;-3.390;2024-01-10T04:24:57;102158.06;;;-0.10;100.00
23261;BME280;11799;47.740;-3.390;2024-01-10T04:27:23;102156.31;;;-0.10;100.00
23261;BME280;11799;47.740;-3.390;2024-01-10T04:29:48;102158.91;;;-0.08;100.00
23261;BME280;11799;47.740;-3.390;2024-01-10T04:32:14;102156.41;;;-0.16;100.00
23261;BME280;11799;47.740;-3.390;2024-01-10T04:34:39;102156.28;;;-0.07;100.00
23261;BME280;11799;47.740;-3.390;2024-01-10T04:37:05;102152.81;;;-0.07;100.00
23261;BME280;11799;47.740;-3.390;2024-01-10T04:39:33;102165.81;;;-0.07;100.00
23261;BME280;11799;47.740;-3.390;2024-01-10T04:41:59;102167.59;;;-0.12;100.00
23261;BME280;11799;47.740;-3.390;2024-01-10T04:44:24;102166.78;;;-0.17;100.00
23261;BME280;11799;47.740;-3.390;2024-01-10T04:46:50;102159.03;;;-0.19;100.00
23261;BME280;11799;47.740;-3.390;2024-01-10T04:49:15;102165.09;;;-0.20;100.00
23261;BME280;11799;47.740;-3.390;2024-01-10T04:51:41;102164.31;;;-0.28;100.00
23261;BME280;11799;47.740;-3.390;2024-01-10T04:54:07;102159.88;;;-0.17;100.00
23261;BME280;11799;47.740;-3.390;2024-01-10T04:56:32;102156.34;;;-0.11;100.00
23261;BME280;11799;47.740;-3.390;2024-01-10T04:58:58;102165.91;;;-0.16;100.00
23261;BME280;11799;47.740;-3.390;2024-01-10T05:01:23;102166.00;;;-0.22;100.00
23261;BME280;11799;47.740;-3.390;2024-01-10T05:03:49;102170.19;;;-0.12;100.00
23261;BME280;11799;47.740;-3.390;2024-01-10T05:06:14;102158.94;;;-0.11;100.00
23261;BME280;11799;47.740;-3.390;2024-01-10T05:08:40;102164.09;;;-0.10;100.00
23261;BME280;11799;47.740;-3.390;2024-01-10T05:11:06;102168.53;;;-0.18;100.00
23261;BME280;11799;47.740;-3.390;2024-01-10T05:13:31;102167.69;;;-0.20;100.00
23261;BME280;11799;47.740;-3.390;2024-01-10T05:15:57;102165.94;;;-0.18;100.00
23261;BME280;11799;47.740;-3.390;2024-01-10T05:18:22;102172.00;;;-0.17;100.00
23261;BME280;11799;47.740;-3.390;2024-01-10T05:20:48;102168.63;;;-0.25;100.00
23261;BME280;11799;47.740;-3.390;2024-01-10T05:23:13;102166.91;;;-0.26;100.00
23261;BME280;11799;47.740;-3.390;2024-01-10T05:25:39;102166.78;;;-0.17;100.00
23261;BME280;11799;47.740;-3.390;2024-01-10T05:28:05;102165.06;;;-0.18;100.00
23261;BME280;11799;47.740;-3.390;2024-01-10T05:30:30;102164.31;;;-0.26;100.00
23261;BME280;11799;47.740;-3.390;2024-01-10T05:32:57;102167.72;;;-0.21;100.00
23261;BME280;11799;47.740;-3.390;2024-01-10T05:35:24;102164.22;;;-0.19;100.00
23261;BME280;11799;47.740;-3.390;2024-01-10T05:37:51;102162.56;;;-0.24;100.00
23261;BME280;11799;47.740;-3.390;2024-01-10T05:40:17;102164.22;;;-0.19;100.00
23261;BME280;11799;47.740;-3.390;2024-01-10T05:42:44;102165.94;;;-0.18;100.00
23261;BME280;11799;47.740;-3.390;2024-01-10T05:45:09;102174.56;;;-0.14;100.00
23261;BME280;11799;47.740;-3.390;2024-01-10T05:47:35;102174.56;;;-0.14;100.00
23261;BME280;11799;47.740;-3.390;2024-01-10T05:50:01;102177.97;;;-0.11;100.00
23261;BME280;11799;47.740;-3.390;2024-01-10T05:52:27;102180.59;;;-0.12;100.00
23261;BME280;11799;47.740;-3.390;2024-01-10T05:54:53;102182.31;;;-0.11;100.00
23261;BME280;11799;47.740;-3.390;2024-01-10T05:57:18;102178.91;;;-0.18;100.00
23261;BME280;11799;47.740;-3.390;2024-01-10T05:59:44;102185.72;;;-0.08;100.00
23261;BME280;11799;47.740;-3.390;2024-01-10T06:02:09;102195.31;;;-0.14;100.00
23261;BME280;11799;47.740;-3.390;2024-01-10T06:04:35;102191.94;;;-0.21;100.00
23261;BME280;11799;47.740;-3.390;2024-01-10T06:07:01;102200.59;;;-0.22;100.00
23261;BME280;11799;47.740;-3.390;2024-01-10T06:09:27;102191.09;;;-0.24;100.00
23261;BME280;11799;47.740;-3.390;2024-01-10T06:11:52;102191.06;;;-0.20;100.00
23261;BME280;11799;47.740;-3.390;2024-01-10T06:14:18;102189.38;;;-0.24;100.00
23261;BME280;11799;47.740;-3.390;2024-01-10T06:16:44;102178.94;;;-0.19;100.00
23261;BME280;11799;47.740;-3.390;2024-01-10T06:19:13;102177.16;;;-0.14;100.00
23261;BME280;11799;47.740;-3.390;2024-01-10T06:21:39;102176.34;;;-0.19;100.00
23261;BME280;11799;47.740;-3.390;2024-01-10T06:24:04;102185.91;;;-0.24;100.00
23261;BME280;11799;47.740;-3.390;2024-01-10T06:26:30;102192.03;;;-0.30;100.00
23261;BME280;11799;47.740;-3.390;2024-01-10T06:28:56;102190.31;;;-0.29;100.00
23261;BME280;11799;47.740;-3.390;2024-01-10T06:31:21;102191.94;;;-0.22;100.00
23261;BME280;11799;47.740;-3.390;2024-01-10T06:33:47;102191.97;;;-0.24;100.00
23261;BME280;11799;47.740;-3.390;2024-01-10T06:36:13;102198.88;;;-0.23;100.00
23261;BME280;11799;47.740;-3.390;2024-01-10T06:38:39;102193.63;;;-0.18;100.00
23261;BME280;11799;47.740;-3.390;2024-01-10T06:41:11;102206.56;;;-0.14;100.00
23261;BME280;11799;47.740;-3.390;2024-01-10T06:43:39;102213.53;;;-0.17;100.00
23261;BME280;11799;47.740;-3.390;2024-01-10T06:46:06;102218.72;;;-0.17;100.00
23261;BME280;11799;47.740;-3.390;2024-01-10T06:48:32;102212.66;;;-0.18;100.00
23261;BME280;11799;47.740;-3.390;2024-01-10T06:50:58;102220.44;;;-0.15;100.00
23261;BME280;11799;47.740;-3.390;2024-01-10T06:53:24;102212.63;;;-0.13;100.00
23261;BME280;11799;47.740;-3.390;2024-01-10T06:55:50;102209.97;;;-0.09;100.00
23261;BME280;11799;47.740;-3.390;2024-01-10T06:58:16;102211.75;;;-0.12;100.00
23261;BME280;11799;47.740;-3.390;2024-01-10T07:00:41;102217.84;;;-0.15;100.00
23261;BME280;11799;47.740;-3.390;2024-01-10T07:03:07;102206.56;;;-0.14;100.00
23261;BME280;11799;47.740;-3.390;2024-01-10T07:05:33;102201.34;;;-0.12;100.00
23261;BME280;11799;47.740;-3.390;2024-01-10T07:07:59;102209.19;;;-0.15;100.00
23261;BME280;11799;47.740;-3.390;2024-01-10T07:10:24;102212.63;;;-0.13;100.00
23261;BME280;11799;47.740;-3.390;2024-01-10T07:12:55;102219.59;;;-0.18;100.00
23261;BME280;11799;47.740;-3.390;2024-01-10T07:15:21;102219.66;;;-0.24;100.00
23261;BME280;11799;47.740;-3.390;2024-01-10T07:17:47;102229.25;;;-0.29;100.00
23261;BME280;11799;47.740;-3.390;2024-01-10T07:20:13;102228.25;;;-0.19;100.00
23261;BME280;11799;47.740;-3.390;2024-01-10T07:22:39;102222.16;;;-0.14;100.00
23261;BME280;11799;47.740;-3.390;2024-01-10T07:25:10;102230.84;;;-0.16;100.00
23261;BME280;11799;47.740;-3.390;2024-01-10T07:27:40;102223.13;;;-0.24;100.00
23261;BME280;11799;47.740;-3.390;2024-01-10T07:30:06;102228.22;;;-0.15;100.00
23261;BME280;11799;47.740;-3.390;2024-01-10T07:32:47;102231.69;;;-0.16;100.00
23261;BME280;11799;47.740;-3.390;2024-01-10T07:35:13;102232.59;;;-0.20;100.00
23261;BME280;11799;47.740;-3.390;2024-01-10T07:37:42;102231.72;;;-0.17;100.00
23261;BME280;11799;47.740;-3.390;2024-01-10T07:40:08;102234.31;;;-0.17;100.00
23261;BME280;11799;47.740;-3.390;2024-01-10T07:42:37;102243.78;;;-0.13;100.00
23261;BME280;11799;47.740;-3.390;2024-01-10T07:45:03;102241.25;;;-0.21;100.00
23261;BME280;11799;47.740;-3.390;2024-01-10T07:47:33;102244.63;;;-0.13;100.00
23261;BME280;11799;47.740;-3.390;2024-01-10T07:50:09;102236.84;;;-0.13;100.00
23261;BME280;11799;47.740;-3.390;2024-01-10T07:52:35;102239.50;;;-0.17;100.00
23261;BME280;11799;47.740;-3.390;2024-01-10T07:55:01;102236.03;;;-0.16;100.00
23261;BME280;11799;47.740;-3.390;2024-01-10T07:57:30;102240.31;;;-0.14;100.00
23261;BME280;11799;47.740;-3.390;2024-01-10T07:59:56;102235.16;;;-0.17;100.00
23261;BME280;11799;47.740;-3.390;2024-01-10T08:02:22;102242.91;;;-0.14;100.00
23261;BME280;11799;47.740;-3.390;2024-01-10T08:04:47;102251.59;;;-0.15;100.00
23261;BME280;11799;47.740;-3.390;2024-01-10T08:07:13;102248.16;;;-0.18;100.00
23261;BME280;11799;47.740;-3.390;2024-01-10T08:09:39;102254.22;;;-0.18;100.00
23261;BME280;11799;47.740;-3.390;2024-01-10T08:12:04;102255.97;;;-0.20;100.00
23261;BME280;11799;47.740;-3.390;2024-01-10T08:14:30;102256.81;;;-0.18;100.00
23261;BME280;11799;47.740;-3.390;2024-01-10T08:16:55;102261.13;;;-0.17;100.00
23261;BME280;11799;47.740;-3.390;2024-01-10T08:19:27;102262.00;;;-0.16;100.00
23261;BME280;11799;47.740;-3.390;2024-01-10T08:21:53;102264.63;;;-0.19;100.00
23261;BME280;11799;47.740;-3.390;2024-01-10T08:24:19;102271.50;;;-0.17;100.00
23261;BME280;11799;47.740;-3.390;2024-01-10T08:26:45;102282.75;;;-0.16;100.00
23261;BME280;11799;47.740;-3.390;2024-01-10T08:29:10;102270.63;;;-0.16;100.00
23261;BME280;11799;47.740;-3.390;2024-01-10T08:31:36;102280.97;;;-0.11;100.00
23261;BME280;11799;47.740;-3.390;2024-01-10T08:34:01;102293.97;;;-0.13;100.00
23261;BME280;11799;47.740;-3.390;2024-01-10T08:36:28;102284.53;;;-0.21;100.00
23261;BME280;11799;47.740;-3.390;2024-01-10T08:38:53;102289.69;;;-0.18;100.00
23261;BME280;11799;47.740;-3.390;2024-01-10T08:41:19;102277.59;;;-0.18;100.00
23261;BME280;11799;47.740;-3.390;2024-01-10T08:43:47;102287.97;;;-0.19;100.00
23261;BME280;11799;47.740;-3.390;2024-01-10T08:46:13;102283.63;;;-0.16;100.00
23261;BME280;11799;47.740;-3.390;2024-01-10T08:48:39;102293.97;;;-0.11;100.00
23261;BME280;11799;47.740;-3.390;2024-01-10T08:51:04;102299.13;;;-0.08;100.00
23261;BME280;11799;47.740;-3.390;2024-01-10T08:53:30;102301.78;;;-0.14;100.00
23261;BME280;11799;47.740;-3.390;2024-01-10T08:55:55;102299.16;;;-0.11;100.00
23261;BME280;11799;47.740;-3.390;2024-01-10T08:58:21;102302.63;;;-0.11;100.00
23261;BME280;11799;47.740;-3.390;2024-01-10T09:00:47;102300.88;;;-0.10;100.00
23261;BME280;11799;47.740;-3.390;2024-01-10T09:03:12;102302.53;;;-0.03;100.00
23261;BME280;11799;47.740;-3.390;2024-01-10T09:05:38;102304.28;;;-0.04;100.00
23261;BME280;11799;47.740;-3.390;2024-01-10T09:08:04;102307.75;;;-0.05;100.00
23261;BME280;11799;47.740;-3.390;2024-01-10T09:10:29;102302.56;;;-0.06;100.00
23261;BME280;11799;47.740;-3.390;2024-01-10T09:12:55;102304.19;;;0.01;100.00
23261;BME280;11799;47.740;-3.390;2024-01-10T09:15:21;102305.97;;;-0.01;100.00
23261;BME280;11799;47.740;-3.390;2024-01-10T09:17:46;102304.25;;;-0.02;100.00
23261;BME280;11799;47.740;-3.390;2024-01-10T09:20:12;102312.91;;;-0.02;100.00
23261;BME280;11799;47.740;-3.390;2024-01-10T09:22:38;102316.31;;;0.00;100.00
23261;BME280;11799;47.740;-3.390;2024-01-10T09:25:05;102312.94;;;-0.03;100.00
23261;BME280;11799;47.740;-3.390;2024-01-10T09:27:32;102316.38;;;-0.03;100.00
23261;BME280;11799;47.740;-3.390;2024-01-10T09:29:59;102313.72;;;0.02;100.00
23261;BME280;11799;47.740;-3.390;2024-01-10T09:32:27;102311.94;;;0.06;100.00
23261;BME280;11799;47.740;-3.390;2024-01-10T09:34:53;102316.28;;;0.05;100.00
23261;BME280;11799;47.740;-3.390;2024-01-10T09:37:19;102320.69;;;-0.02;100.00
23261;BME280;11799;47.740;-3.390;2024-01-10T09:39:45;102327.53;;;0.06;100.00
23261;BME280;11799;47.740;-3.390;2024-01-10T09:42:10;102329.16;;;0.16;100.00
23261;BME280;11799;47.740;-3.390;2024-01-10T09:44:36;102330.78;;;0.24;100.00
23261;BME280;11799;47.740;-3.390;2024-01-10T09:47:02;102324.69;;;0.27;100.00
23261;BME280;11799;47.740;-3.390;2024-01-10T09:49:27;102331.59;;;0.29;100.00
23261;BME280;11799;47.740;-3.390;2024-01-10T09:51:58;102335.00;;;0.36;100.00
23261;BME280;11799;47.740;-3.390;2024-01-10T09:54:29;102335.75;;;0.47;100.00
23261;BME280;11799;47.740;-3.390;2024-01-10T09:56:56;102337.44;;;0.51;100.00
23261;BME280;11799;47.740;-3.390;2024-01-10T09:59:22;102339.13;;;0.54;100.00
23261;BME280;11799;47.740;-3.390;2024-01-10T10:01:50;102338.13;;;0.61;100.00
23261;BME280;11799;47.740;-3.390;2024-01-10T10:04:17;102334.59;;;0.66;100.00
23261;BME280;11799;47.740;-3.390;2024-01-10T10:06:43;102333.69;;;0.71;100.00
23261;BME280;11799;47.740;-3.390;2024-01-10T10:09:10;102336.28;;;0.71;100.00
23261;BME280;11799;47.740;-3.390;2024-01-10T10:11:36;102331.03;;;0.75;100.00
23261;BME280;11799;47.740;-3.390;2024-01-10T10:14:16;102330.13;;;0.78;100.00
23261;BME280;11799;47.740;-3.390;2024-01-10T10:16:41;102326.66;;;0.77;100.00
23261;BME280;11799;47.740;-3.390;2024-01-10T10:19:07;102335.34;;;0.76;100.00
23261;BME280;11799;47.740;-3.390;2024-01-10T10:21:34;102331.00;;;0.77;100.00
23261;BME280;11799;47.740;-3.390;2024-01-10T10:24:01;102325.00;;;0.73;100.00
23261;BME280;11799;47.740;-3.390;2024-01-10T10:26:32;102324.13;;;0.73;100.00
23261;BME280;11799;47.740;-3.390;2024-01-10T10:28:57;102329.38;;;0.70;100.00
23261;BME280;11799;47.740;-3.390;2024-01-10T10:31:24;102320.66;;;0.72;100.00
23261;BME280;11799;47.740;-3.390;2024-01-10T10:33:50;102331.00;;;0.78;100.00
23261;BME280;11799;47.740;-3.390;2024-01-10T10:36:16;102332.69;;;0.82;100.00
23261;BME280;11799;47.740;-3.390;2024-01-10T10:38:42;102334.41;;;0.83;100.00
23261;BME280;11799;47.740;-3.390;2024-01-10T10:41:08;102336.16;;;0.81;100.00
23261;BME280;11799;47.740;-3.390;2024-01-10T10:43:36;102341.28;;;0.87;100.00
23261;BME280;11799;47.740;-3.390;2024-01-10T10:46:04;102341.28;;;0.86;100.00
23261;BME280;11799;47.740;-3.390;2024-01-10T10:48:35;102342.97;;;0.90;100.00
23261;BME280;11799;47.740;-3.390;2024-01-10T10:53:33;102343.81;;;0.92;100.00
23261;BME280;11799;47.740;-3.390;2024-01-10T10:56:00;102340.38;;;0.90;100.00
23261;BME280;11799;47.740;-3.390;2024-01-10T10:58:27;102325.66;;;0.89;100.00
23261;BME280;11799;47.740;-3.390;2024-01-10T11:00:53;102323.88;;;0.91;100.00
23261;BME280;11799;47.740;-3.390;2024-01-10T11:03:21;102331.66;;;0.92;100.00
23261;BME280;11799;47.740;-3.390;2024-01-10T11:05:49;102337.72;;;0.94;100.00
23261;BME280;11799;47.740;-3.390;2024-01-10T11:08:19;102328.19;;;0.93;100.00
23261;BME280;11799;47.740;-3.390;2024-01-10T11:10:46;102324.75;;;0.91;100.00
23261;BME280;11799;47.740;-3.390;2024-01-10T11:19:41;102334.28;;;0.92;100.00
23261;BME280;11799;47.740;-3.390;2024-01-10T11:25:03;102323.88;;;0.92;100.00
23261;BME280;11799;47.740;-3.390;2024-01-10T11:27:30;102324.72;;;0.94;100.00
23261;BME280;11799;47.740;-3.390;2024-01-10T11:29:55;102320.44;;;0.90;100.00
23261;BME280;11799;47.740;-3.390;2024-01-10T11:32:22;102323.84;;;0.94;100.00
23261;BME280;11799;47.740;-3.390;2024-01-10T11:34:58;102323.00;;;0.93;100.00
23261;BME280;11799;47.740;-3.390;2024-01-10T11:37:28;102316.91;;;0.94;100.00
23261;BME280;11799;47.740;-3.390;2024-01-10T11:40:03;102307.31;;;0.98;100.00
23261;BME280;11799;47.740;-3.390;2024-01-10T11:42:42;102309.88;;;1.01;100.00
23261;BME280;11799;47.740;-3.390;2024-01-10T11:45:08;102311.53;;;1.07;100.00
23261;BME280;11799;47.740;-3.390;2024-01-10T11:47:34;102295.00;;;1.09;100.00
23261;BME280;11799;47.740;-3.390;2024-01-10T11:50:02;102299.31;;;1.12;100.00
23261;BME280;11799;47.740;-3.390;2024-01-10T11:52:36;102289.84;;;1.06;100.00
23261;BME280;11799;47.740;-3.390;2024-01-10T11:55:02;102293.28;;;1.08;100.00
23261;BME280;11799;47.740;-3.390;2024-01-10T11:57:29;102292.41;;;1.09;100.00
23261;BME280;11799;47.740;-3.390;2024-01-10T11:59:57;102279.34;;;1.12;100.00
23261;BME280;11799;47.740;-3.390;2024-01-10T12:02:25;102279.34;;;1.14;100.00
23261;BME280;11799;47.740;-3.390;2024-01-10T12:04:52;102280.13;;;1.16;100.00
23261;BME280;11799;47.740;-3.390;2024-01-10T12:07:19;102280.06;;;1.20;100.00
23261;BME280;11799;47.740;-3.390;2024-01-10T12:09:45;102279.16;;;1.23;100.00
23261;BME280;11799;47.740;-3.390;2024-01-10T12:12:14;102283.50;;;1.22;100.00
23261;BME280;11799;47.740;-3.390;2024-01-10T12:14:41;102274.84;;;1.22;100.00
23261;BME280;11799;47.740;-3.390;2024-01-10T12:17:08;102260.13;;;1.19;100.00
23261;BME280;11799;47.740;-3.390;2024-01-10T12:19:35;102269.59;;;1.25;100.00
23261;BME280;11799;47.740;-3.390;2024-01-10T12:22:06;102266.09;;;1.26;100.00
23261;BME280;11799;47.740;-3.390;2024-01-10T12:24:32;102260.06;;;1.24;100.00
23261;BME280;11799;47.740;-3.390;2024-01-10T12:26:58;102257.47;;;1.24;100.00
23261;BME280;11799;47.740;-3.390;2024-01-10T12:29:24;102249.69;;;1.22;100.00
23261;BME280;11799;47.740;-3.390;2024-01-10T12:31:51;102263.56;;;1.21;100.00
23261;BME280;11799;47.740;-3.390;2024-01-10T12:34:16;102256.72;;;1.16;100.00
23261;BME280;11799;47.740;-3.390;2024-01-10T12:36:42;102253.31;;;1.14;100.00
23261;BME280;11799;47.740;-3.390;2024-01-10T12:39:08;102252.56;;;1.07;100.00
23261;BME280;11799;47.740;-3.390;2024-01-10T12:41:34;102251.56;;;1.14;100.00
23261;BME280;11799;47.740;-3.390;2024-01-10T12:44:01;102251.50;;;1.16;100.00